Melton Hill Observed Data For Previous 48 Hours

Caption
Day and Hour Reservoir Elevation (behind dam)* Tailwater Elevation (below dam)* Average Hourly Discharge*
1/16/2019 2 AM EST 793.07 740.69 13,580
1/16/2019 3 AM EST 793.05 740.66 13,577
1/16/2019 4 AM EST 793.03 740.67 13,582
1/16/2019 5 AM EST 793.02 740.67 13,572
1/16/2019 6 AM EST 793.00 740.66 13,572
1/16/2019 7 AM EST 792.99 740.66 13,574
1/16/2019 8 AM EST 792.97 740.65 13,573
1/16/2019 9 AM EST 792.95 740.65 13,559
1/16/2019 10 AM EST 792.93 740.64 13,576
1/16/2019 11 AM EST 792.92 740.64 13,568
1/16/2019 12 PM EST 792.90 740.64 13,558
1/16/2019 1 PM EST 792.88 740.65 13,572
1/16/2019 2 PM EST 792.86 740.65 13,557
1/16/2019 3 PM EST 792.85 740.65 13,547
1/16/2019 4 PM EST 792.83 740.64 13,537
1/16/2019 5 PM EST 792.82 740.64 13,584
1/16/2019 6 PM EST 792.80 740.66 13,594
1/16/2019 7 PM EST 792.78 740.64 13,595
1/16/2019 8 PM EST 792.77 740.64 13,601
1/16/2019 9 PM EST 792.75 740.65 13,596
1/16/2019 10 PM EST 792.73 740.64 13,580
1/16/2019 11 PM EST 792.72 740.63 13,632
1/17/2019 12 AM EST 792.70 740.63 13,632
1/17/2019 1 AM EST 792.68 740.62 13,665
1/17/2019 2 AM EST 792.67 740.63 13,657
1/17/2019 3 AM EST 792.65 740.62 13,637
1/17/2019 4 AM EST 792.63 740.62 13,639
1/17/2019 5 AM EST 792.61 740.62 13,635
1/17/2019 6 AM EST 792.59 740.59 13,618
1/17/2019 7 AM EST 792.58 740.60 13,625
1/17/2019 8 AM EST 792.57 740.60 13,623
1/17/2019 9 AM EST 792.58 740.32 13,298
1/17/2019 10 AM EST 792.56 740.24 12,535
1/17/2019 11 AM EST 792.68 738.57 7,924
1/17/2019 12 PM EST 792.83 738.21 6,425
1/17/2019 1 PM EST 792.83 738.27 6,494
1/17/2019 2 PM EST 793.07 738.26 6,818
1/17/2019 3 PM EST 793.14 738.26 6,851
1/17/2019 4 PM EST 793.21 738.15 6,084
1/17/2019 5 PM EST 793.38 738.16 6,028
1/17/2019 6 PM EST 793.45 738.17 6,042
1/17/2019 7 PM EST 793.60 738.13 6,078
1/17/2019 8 PM EST 793.69 738.11 6,070
1/17/2019 9 PM EST 793.80 738.08 6,039
1/17/2019 10 PM EST 793.85 738.08 6,011
1/17/2019 11 PM EST 793.87 738.06 6,021
1/18/2019 12 AM EST 793.85 738.03 6,081

Elevations are in feet above sea level. Discharges are in cubic feet per second and are reported at the end of the hour.